sensor_id;sensor_type;location;lat;lon;timestamp;P1;durP1;ratioP1;P2;durP2;ratioP2
10403;SDS011;5248;47.374;8.486;2022-12-18T00:01:53;33.73;;;27.33;;
10403;SDS011;5248;47.374;8.486;2022-12-18T00:04:23;34.53;;;28.00;;
10403;SDS011;5248;47.374;8.486;2022-12-18T00:06:50;36.97;;;27.17;;
10403;SDS011;5248;47.374;8.486;2022-12-18T00:09:17;32.83;;;26.37;;
10403;SDS011;5248;47.374;8.486;2022-12-18T00:11:44;32.53;;;25.73;;
10403;SDS011;5248;47.374;8.486;2022-12-18T00:14:12;32.97;;;26.67;;
10403;SDS011;5248;47.374;8.486;2022-12-18T00:16:39;35.67;;;27.13;;
10403;SDS011;5248;47.374;8.486;2022-12-18T00:19:06;34.73;;;27.90;;
10403;SDS011;5248;47.374;8.486;2022-12-18T00:21:33;35.40;;;27.20;;
10403;SDS011;5248;47.374;8.486;2022-12-18T00:23:59;34.73;;;27.23;;
10403;SDS011;5248;47.374;8.486;2022-12-18T00:26:27;35.37;;;27.33;;
10403;SDS011;5248;47.374;8.486;2022-12-18T00:28:55;35.10;;;28.63;;
10403;SDS011;5248;47.374;8.486;2022-12-18T00:31:25;35.57;;;26.90;;
10403;SDS011;5248;47.374;8.486;2022-12-18T00:33:53;36.30;;;28.70;;
10403;SDS011;5248;47.374;8.486;2022-12-18T00:36:21;34.67;;;28.37;;
10403;SDS011;5248;47.374;8.486;2022-12-18T00:38:49;35.67;;;27.77;;
10403;SDS011;5248;47.374;8.486;2022-12-18T00:41:16;38.33;;;29.13;;
10403;SDS011;5248;47.374;8.486;2022-12-18T00:44:04;35.07;;;28.50;;
10403;SDS011;5248;47.374;8.486;2022-12-18T00:46:31;35.50;;;27.53;;
10403;SDS011;5248;47.374;8.486;2022-12-18T00:48:58;37.47;;;28.63;;
10403;SDS011;5248;47.374;8.486;2022-12-18T00:51:25;34.90;;;27.23;;
10403;SDS011;5248;47.374;8.486;2022-12-18T00:53:52;36.70;;;27.13;;
10403;SDS011;5248;47.374;8.486;2022-12-18T00:56:19;37.10;;;27.40;;
10403;SDS011;5248;47.374;8.486;2022-12-18T00:58:45;37.10;;;28.53;;
10403;SDS011;5248;47.374;8.486;2022-12-18T01:01:11;36.37;;;27.47;;
10403;SDS011;5248;47.374;8.486;2022-12-18T01:03:39;36.43;;;28.33;;
10403;SDS011;5248;47.374;8.486;2022-12-18T01:06:06;36.47;;;27.47;;
10403;SDS011;5248;47.374;8.486;2022-12-18T01:08:34;37.83;;;28.00;;
10403;SDS011;5248;47.374;8.486;2022-12-18T01:11:00;38.90;;;29.37;;
10403;SDS011;5248;47.374;8.486;2022-12-18T01:13:27;38.50;;;29.40;;
10403;SDS011;5248;47.374;8.486;2022-12-18T01:15:53;35.03;;;28.07;;
10403;SDS011;5248;47.374;8.486;2022-12-18T01:18:20;39.50;;;29.43;;
10403;SDS011;5248;47.374;8.486;2022-12-18T01:20:48;37.00;;;28.27;;
10403;SDS011;5248;47.374;8.486;2022-12-18T01:23:14;38.37;;;27.90;;
10403;SDS011;5248;47.374;8.486;2022-12-18T01:25:40;38.53;;;28.80;;
10403;SDS011;5248;47.374;8.486;2022-12-18T01:28:07;36.30;;;28.37;;
10403;SDS011;5248;47.374;8.486;2022-12-18T01:30:34;37.37;;;28.40;;
10403;SDS011;5248;47.374;8.486;2022-12-18T01:33:00;35.40;;;27.80;;
10403;SDS011;5248;47.374;8.486;2022-12-18T01:35:27;39.07;;;29.20;;
10403;SDS011;5248;47.374;8.486;2022-12-18T01:37:55;35.87;;;28.03;;
10403;SDS011;5248;47.374;8.486;2022-12-18T01:40:21;35.83;;;27.93;;
10403;SDS011;5248;47.374;8.486;2022-12-18T01:42:49;37.00;;;28.77;;
10403;SDS011;5248;47.374;8.486;2022-12-18T01:45:24;36.67;;;28.63;;
10403;SDS011;5248;47.374;8.486;2022-12-18T01:47:52;38.77;;;29.00;;
10403;SDS011;5248;47.374;8.486;2022-12-18T01:50:21;38.07;;;28.40;;
10403;SDS011;5248;47.374;8.486;2022-12-18T01:52:50;37.13;;;29.00;;
10403;SDS011;5248;47.374;8.486;2022-12-18T01:55:20;37.60;;;28.33;;
10403;SDS011;5248;47.374;8.486;2022-12-18T01:57:49;38.43;;;28.80;;
10403;SDS011;5248;47.374;8.486;2022-12-18T02:00:18;39.67;;;30.47;;
10403;SDS011;5248;47.374;8.486;2022-12-18T02:02:46;35.83;;;28.67;;
10403;SDS011;5248;47.374;8.486;2022-12-18T02:05:15;37.90;;;28.63;;
10403;SDS011;5248;47.374;8.486;2022-12-18T02:07:44;39.50;;;29.97;;
10403;SDS011;5248;47.374;8.486;2022-12-18T02:10:21;40.10;;;29.80;;
10403;SDS011;5248;47.374;8.486;2022-12-18T02:12:52;39.20;;;29.27;;
10403;SDS011;5248;47.374;8.486;2022-12-18T02:15:24;34.30;;;28.77;;
10403;SDS011;5248;47.374;8.486;2022-12-18T02:17:54;36.10;;;28.77;;
10403;SDS011;5248;47.374;8.486;2022-12-18T02:20:25;38.10;;;28.93;;
10403;SDS011;5248;47.374;8.486;2022-12-18T02:22:59;39.03;;;29.27;;
10403;SDS011;5248;47.374;8.486;2022-12-18T02:25:43;39.10;;;29.63;;
10403;SDS011;5248;47.374;8.486;2022-12-18T02:28:22;37.60;;;29.10;;
10403;SDS011;5248;47.374;8.486;2022-12-18T02:30:50;38.77;;;28.90;;
10403;SDS011;5248;47.374;8.486;2022-12-18T02:33:17;39.10;;;30.60;;
10403;SDS011;5248;47.374;8.486;2022-12-18T02:35:45;38.23;;;29.47;;
10403;SDS011;5248;47.374;8.486;2022-12-18T02:38:12;38.03;;;28.93;;
10403;SDS011;5248;47.374;8.486;2022-12-18T02:40:40;40.83;;;29.97;;
10403;SDS011;5248;47.374;8.486;2022-12-18T02:43:10;42.07;;;29.63;;
10403;SDS011;5248;47.374;8.486;2022-12-18T02:45:45;39.87;;;29.43;;
10403;SDS011;5248;47.374;8.486;2022-12-18T02:48:12;39.60;;;29.80;;
10403;SDS011;5248;47.374;8.486;2022-12-18T02:50:44;37.57;;;28.07;;
10403;SDS011;5248;47.374;8.486;2022-12-18T02:53:13;40.07;;;28.77;;
10403;SDS011;5248;47.374;8.486;2022-12-18T02:55:47;38.33;;;29.73;;
10403;SDS011;5248;47.374;8.486;2022-12-18T02:58:20;38.53;;;29.50;;
10403;SDS011;5248;47.374;8.486;2022-12-18T03:00:53;41.20;;;30.27;;
10403;SDS011;5248;47.374;8.486;2022-12-18T03:03:25;38.53;;;28.90;;
10403;SDS011;5248;47.374;8.486;2022-12-18T03:05:56;38.57;;;29.83;;
10403;SDS011;5248;47.374;8.486;2022-12-18T03:08:26;38.80;;;29.63;;
10403;SDS011;5248;47.374;8.486;2022-12-18T03:10:55;44.87;;;31.00;;
10403;SDS011;5248;47.374;8.486;2022-12-18T03:13:27;42.00;;;30.23;;
10403;SDS011;5248;47.374;8.486;2022-12-18T03:15:56;42.60;;;30.37;;
10403;SDS011;5248;47.374;8.486;2022-12-18T03:18:23;40.00;;;29.73;;
10403;SDS011;5248;47.374;8.486;2022-12-18T03:20:52;39.93;;;29.87;;
10403;SDS011;5248;47.374;8.486;2022-12-18T03:23:21;41.17;;;29.80;;
10403;SDS011;5248;47.374;8.486;2022-12-18T03:25:50;39.67;;;29.67;;
10403;SDS011;5248;47.374;8.486;2022-12-18T03:28:19;41.77;;;29.73;;
10403;SDS011;5248;47.374;8.486;2022-12-18T03:30:49;39.97;;;30.43;;
10403;SDS011;5248;47.374;8.486;2022-12-18T03:33:19;39.90;;;29.80;;
10403;SDS011;5248;47.374;8.486;2022-12-18T03:35:47;37.43;;;28.47;;
10403;SDS011;5248;47.374;8.486;2022-12-18T03:38:15;39.07;;;28.63;;
10403;SDS011;5248;47.374;8.486;2022-12-18T03:40:44;43.03;;;30.50;;
10403;SDS011;5248;47.374;8.486;2022-12-18T03:43:16;40.07;;;28.83;;
10403;SDS011;5248;47.374;8.486;2022-12-18T03:45:50;39.87;;;29.30;;
10403;SDS011;5248;47.374;8.486;2022-12-18T03:48:19;43.77;;;29.27;;
10403;SDS011;5248;47.374;8.486;2022-12-18T03:50:48;40.53;;;30.03;;
10403;SDS011;5248;47.374;8.486;2022-12-18T03:53:22;42.80;;;30.80;;
10403;SDS011;5248;47.374;8.486;2022-12-18T03:55:54;41.17;;;30.40;;
10403;SDS011;5248;47.374;8.486;2022-12-18T03:58:22;41.17;;;30.57;;
10403;SDS011;5248;47.374;8.486;2022-12-18T04:00:52;41.47;;;30.00;;
10403;SDS011;5248;47.374;8.486;2022-12-18T04:03:20;39.77;;;29.13;;
10403;SDS011;5248;47.374;8.486;2022-12-18T04:05:47;39.33;;;29.13;;
10403;SDS011;5248;47.374;8.486;2022-12-18T04:08:14;42.73;;;30.33;;
10403;SDS011;5248;47.374;8.486;2022-12-18T04:10:41;42.87;;;30.50;;
10403;SDS011;5248;47.374;8.486;2022-12-18T04:13:08;41.70;;;30.13;;
10403;SDS011;5248;47.374;8.486;2022-12-18T04:15:35;46.20;;;31.77;;
10403;SDS011;5248;47.374;8.486;2022-12-18T04:18:04;41.97;;;31.00;;
10403;SDS011;5248;47.374;8.486;2022-12-18T04:20:30;40.07;;;29.60;;
10403;SDS011;5248;47.374;8.486;2022-12-18T04:22:59;39.13;;;28.93;;
10403;SDS011;5248;47.374;8.486;2022-12-18T04:25:25;37.33;;;27.90;;
10403;SDS011;5248;47.374;8.486;2022-12-18T04:27:52;41.57;;;28.87;;
10403;SDS011;5248;47.374;8.486;2022-12-18T04:30:18;34.23;;;26.33;;
10403;SDS011;5248;47.374;8.486;2022-12-18T04:32:45;31.87;;;23.73;;
10403;SDS011;5248;47.374;8.486;2022-12-18T04:35:14;34.57;;;25.90;;
10403;SDS011;5248;47.374;8.486;2022-12-18T04:37:41;32.77;;;24.87;;
10403;SDS011;5248;47.374;8.486;2022-12-18T04:40:08;33.23;;;24.73;;
10403;SDS011;5248;47.374;8.486;2022-12-18T04:42:38;32.73;;;24.57;;
10403;SDS011;5248;47.374;8.486;2022-12-18T04:45:05;34.93;;;25.67;;
10403;SDS011;5248;47.374;8.486;2022-12-18T04:47:32;32.37;;;23.80;;
10403;SDS011;5248;47.374;8.486;2022-12-18T04:49:59;33.70;;;23.87;;
10403;SDS011;5248;47.374;8.486;2022-12-18T04:52:27;32.07;;;24.70;;
10403;SDS011;5248;47.374;8.486;2022-12-18T04:54:54;31.53;;;23.77;;
10403;SDS011;5248;47.374;8.486;2022-12-18T04:57:20;37.27;;;25.93;;
10403;SDS011;5248;47.374;8.486;2022-12-18T04:59:46;34.63;;;25.53;;
10403;SDS011;5248;47.374;8.486;2022-12-18T05:02:13;36.20;;;26.87;;
10403;SDS011;5248;47.374;8.486;2022-12-18T05:04:39;36.40;;;26.87;;
10403;SDS011;5248;47.374;8.486;2022-12-18T05:07:07;33.90;;;25.17;;
10403;SDS011;5248;47.374;8.486;2022-12-18T05:09:35;36.80;;;26.23;;
10403;SDS011;5248;47.374;8.486;2022-12-18T05:12:02;34.13;;;26.20;;
10403;SDS011;5248;47.374;8.486;2022-12-18T05:14:28;34.13;;;25.50;;
10403;SDS011;5248;47.374;8.486;2022-12-18T05:16:55;31.80;;;23.37;;
10403;SDS011;5248;47.374;8.486;2022-12-18T05:19:21;32.57;;;24.40;;
10403;SDS011;5248;47.374;8.486;2022-12-18T05:21:48;33.40;;;25.03;;
10403;SDS011;5248;47.374;8.486;2022-12-18T05:24:14;32.17;;;23.93;;
10403;SDS011;5248;47.374;8.486;2022-12-18T05:26:42;32.70;;;24.20;;
10403;SDS011;5248;47.374;8.486;2022-12-18T05:29:09;30.47;;;23.23;;
10403;SDS011;5248;47.374;8.486;2022-12-18T05:31:37;31.97;;;24.57;;
10403;SDS011;5248;47.374;8.486;2022-12-18T05:34:04;31.57;;;24.50;;
10403;SDS011;5248;47.374;8.486;2022-12-18T05:36:30;32.40;;;24.60;;
10403;SDS011;5248;47.374;8.486;2022-12-18T05:38:57;34.27;;;24.30;;
10403;SDS011;5248;47.374;8.486;2022-12-18T05:41:25;32.30;;;24.20;;
10403;SDS011;5248;47.374;8.486;2022-12-18T05:43:52;32.90;;;23.87;;
10403;SDS011;5248;47.374;8.486;2022-12-18T05:46:19;31.07;;;24.07;;
10403;SDS011;5248;47.374;8.486;2022-12-18T05:48:46;33.03;;;23.93;;
10403;SDS011;5248;47.374;8.486;2022-12-18T05:51:14;34.87;;;25.53;;
10403;SDS011;5248;47.374;8.486;2022-12-18T05:53:41;34.10;;;24.77;;
10403;SDS011;5248;47.374;8.486;2022-12-18T05:56:08;33.17;;;25.33;;
10403;SDS011;5248;47.374;8.486;2022-12-18T05:58:36;33.67;;;24.33;;
10403;SDS011;5248;47.374;8.486;2022-12-18T06:01:11;33.80;;;24.67;;
10403;SDS011;5248;47.374;8.486;2022-12-18T06:03:39;30.80;;;23.00;;
10403;SDS011;5248;47.374;8.486;2022-12-18T06:06:12;33.23;;;25.03;;
10403;SDS011;5248;47.374;8.486;2022-12-18T06:08:39;35.90;;;25.63;;
10403;SDS011;5248;47.374;8.486;2022-12-18T06:11:05;33.37;;;25.53;;
10403;SDS011;5248;47.374;8.486;2022-12-18T06:13:32;34.47;;;25.20;;
10403;SDS011;5248;47.374;8.486;2022-12-18T06:16:01;32.20;;;24.97;;
10403;SDS011;5248;47.374;8.486;2022-12-18T06:18:29;34.87;;;25.30;;
10403;SDS011;5248;47.374;8.486;2022-12-18T06:20:56;34.87;;;25.90;;
10403;SDS011;5248;47.374;8.486;2022-12-18T06:23:23;32.40;;;24.00;;
10403;SDS011;5248;47.374;8.486;2022-12-18T06:25:49;32.63;;;24.90;;
10403;SDS011;5248;47.374;8.486;2022-12-18T06:28:16;34.47;;;24.87;;
10403;SDS011;5248;47.374;8.486;2022-12-18T06:30:42;33.87;;;24.57;;
10403;SDS011;5248;47.374;8.486;2022-12-18T06:33:09;33.43;;;25.33;;
10403;SDS011;5248;47.374;8.486;2022-12-18T06:35:37;35.30;;;24.13;;
10403;SDS011;5248;47.374;8.486;2022-12-18T06:38:04;34.00;;;24.97;;
10403;SDS011;5248;47.374;8.486;2022-12-18T06:40:30;34.40;;;25.50;;
10403;SDS011;5248;47.374;8.486;2022-12-18T06:42:57;33.70;;;25.27;;
10403;SDS011;5248;47.374;8.486;2022-12-18T06:45:24;31.57;;;23.73;;
10403;SDS011;5248;47.374;8.486;2022-12-18T06:47:50;33.00;;;24.53;;
10403;SDS011;5248;47.374;8.486;2022-12-18T06:50:17;33.80;;;26.23;;
10403;SDS011;5248;47.374;8.486;2022-12-18T06:52:44;35.67;;;25.70;;
10403;SDS011;5248;47.374;8.486;2022-12-18T06:55:11;35.33;;;26.10;;
10403;SDS011;5248;47.374;8.486;2022-12-18T06:57:37;36.27;;;26.30;;
10403;SDS011;5248;47.374;8.486;2022-12-18T07:00:05;36.27;;;26.43;;
10403;SDS011;5248;47.374;8.486;2022-12-18T07:02:32;35.23;;;25.83;;
10403;SDS011;5248;47.374;8.486;2022-12-18T07:04:59;33.57;;;26.07;;
10403;SDS011;5248;47.374;8.486;2022-12-18T07:07:26;36.97;;;26.30;;
10403;SDS011;5248;47.374;8.486;2022-12-18T07:09:54;35.00;;;26.57;;
10403;SDS011;5248;47.374;8.486;2022-12-18T07:12:20;36.03;;;25.57;;
10403;SDS011;5248;47.374;8.486;2022-12-18T07:14:47;35.57;;;27.00;;
10403;SDS011;5248;47.374;8.486;2022-12-18T07:17:13;37.13;;;25.93;;
10403;SDS011;5248;47.374;8.486;2022-12-18T07:19:40;36.77;;;27.33;;
10403;SDS011;5248;47.374;8.486;2022-12-18T07:22:06;37.43;;;26.73;;
10403;SDS011;5248;47.374;8.486;2022-12-18T07:24:33;35.20;;;25.80;;
10403;SDS011;5248;47.374;8.486;2022-12-18T07:27:01;37.57;;;26.33;;
10403;SDS011;5248;47.374;8.486;2022-12-18T07:29:27;37.70;;;26.43;;
10403;SDS011;5248;47.374;8.486;2022-12-18T07:31:55;32.63;;;24.90;;
10403;SDS011;5248;47.374;8.486;2022-12-18T07:34:21;35.77;;;25.60;;
10403;SDS011;5248;47.374;8.486;2022-12-18T07:36:48;38.13;;;25.67;;
10403;SDS011;5248;47.374;8.486;2022-12-18T07:39:14;33.60;;;25.20;;
10403;SDS011;5248;47.374;8.486;2022-12-18T07:41:41;35.77;;;25.67;;
10403;SDS011;5248;47.374;8.486;2022-12-18T07:44:12;33.97;;;25.87;;
10403;SDS011;5248;47.374;8.486;2022-12-18T07:46:38;36.27;;;25.47;;
10403;SDS011;5248;47.374;8.486;2022-12-18T07:49:05;37.73;;;27.03;;
10403;SDS011;5248;47.374;8.486;2022-12-18T07:51:32;35.40;;;25.63;;
10403;SDS011;5248;47.374;8.486;2022-12-18T07:53:58;36.10;;;25.67;;
10403;SDS011;5248;47.374;8.486;2022-12-18T07:56:25;38.73;;;26.33;;
10403;SDS011;5248;47.374;8.486;2022-12-18T07:58:55;36.53;;;26.33;;
10403;SDS011;5248;47.374;8.486;2022-12-18T08:01:23;35.30;;;26.50;;
10403;SDS011;5248;47.374;8.486;2022-12-18T08:03:51;33.27;;;24.90;;
10403;SDS011;5248;47.374;8.486;2022-12-18T08:06:18;35.73;;;26.20;;
10403;SDS011;5248;47.374;8.486;2022-12-18T08:08:44;34.07;;;24.97;;
10403;SDS011;5248;47.374;8.486;2022-12-18T08:11:11;35.37;;;24.83;;
10403;SDS011;5248;47.374;8.486;2022-12-18T08:13:37;37.33;;;26.70;;
10403;SDS011;5248;47.374;8.486;2022-12-18T08:16:04;36.97;;;25.57;;
10403;SDS011;5248;47.374;8.486;2022-12-18T08:18:34;34.20;;;25.00;;
10403;SDS011;5248;47.374;8.486;2022-12-18T08:21:07;35.47;;;25.60;;
10403;SDS011;5248;47.374;8.486;2022-12-18T08:23:34;34.77;;;25.10;;
10403;SDS011;5248;47.374;8.486;2022-12-18T08:26:00;35.63;;;25.57;;
10403;SDS011;5248;47.374;8.486;2022-12-18T08:28:27;35.37;;;25.23;;
10403;SDS011;5248;47.374;8.486;2022-12-18T08:30:53;38.20;;;26.20;;
10403;SDS011;5248;47.374;8.486;2022-12-18T08:33:20;36.67;;;26.07;;
10403;SDS011;5248;47.374;8.486;2022-12-18T08:35:47;36.73;;;25.20;;
10403;SDS011;5248;47.374;8.486;2022-12-18T08:38:14;36.50;;;25.37;;
10403;SDS011;5248;47.374;8.486;2022-12-18T08:40:41;38.33;;;26.23;;
10403;SDS011;5248;47.374;8.486;2022-12-18T08:43:07;37.47;;;25.70;;
10403;SDS011;5248;47.374;8.486;2022-12-18T08:45:53;34.03;;;24.90;;
10403;SDS011;5248;47.374;8.486;2022-12-18T08:48:20;34.87;;;25.30;;
10403;SDS011;5248;47.374;8.486;2022-12-18T08:50:54;39.23;;;26.40;;
10403;SDS011;5248;47.374;8.486;2022-12-18T08:53:21;35.87;;;25.63;;
10403;SDS011;5248;47.374;8.486;2022-12-18T08:55:47;37.03;;;25.43;;
10403;SDS011;5248;47.374;8.486;2022-12-18T08:58:14;35.07;;;25.40;;
10403;SDS011;5248;47.374;8.486;2022-12-18T09:00:42;36.57;;;25.23;;
10403;SDS011;5248;47.374;8.486;2022-12-18T09:03:10;34.97;;;24.23;;
10403;SDS011;5248;47.374;8.486;2022-12-18T09:05:37;34.90;;;24.70;;
10403;SDS011;5248;47.374;8.486;2022-12-18T09:08:05;36.77;;;25.07;;
10403;SDS011;5248;47.374;8.486;2022-12-18T09:10:32;36.23;;;24.67;;
10403;SDS011;5248;47.374;8.486;2022-12-18T09:12:58;35.73;;;24.50;;
10403;SDS011;5248;47.374;8.486;2022-12-18T09:15:25;35.50;;;25.00;;
10403;SDS011;5248;47.374;8.486;2022-12-18T09:17:51;37.60;;;24.90;;
10403;SDS011;5248;47.374;8.486;2022-12-18T09:20:19;32.67;;;24.37;;
10403;SDS011;5248;47.374;8.486;2022-12-18T09:22:45;35.33;;;23.57;;
10403;SDS011;5248;47.374;8.486;2022-12-18T09:25:13;39.67;;;27.50;;
10403;SDS011;5248;47.374;8.486;2022-12-18T09:27:39;33.57;;;24.97;;
10403;SDS011;5248;47.374;8.486;2022-12-18T09:30:06;33.60;;;25.00;;
10403;SDS011;5248;47.374;8.486;2022-12-18T09:32:33;33.73;;;24.70;;
10403;SDS011;5248;47.374;8.486;2022-12-18T09:35:00;34.33;;;24.73;;
10403;SDS011;5248;47.374;8.486;2022-12-18T09:37:26;35.70;;;24.67;;
10403;SDS011;5248;47.374;8.486;2022-12-18T09:39:53;37.57;;;26.37;;
10403;SDS011;5248;47.374;8.486;2022-12-18T09:42:22;33.37;;;23.17;;
10403;SDS011;5248;47.374;8.486;2022-12-18T09:44:49;33.90;;;24.07;;
10403;SDS011;5248;47.374;8.486;2022-12-18T09:47:18;37.63;;;25.17;;
10403;SDS011;5248;47.374;8.486;2022-12-18T09:49:49;35.50;;;24.90;;
10403;SDS011;5248;47.374;8.486;2022-12-18T09:52:17;33.37;;;24.60;;
10403;SDS011;5248;47.374;8.486;2022-12-18T09:54:46;34.90;;;23.70;;
10403;SDS011;5248;47.374;8.486;2022-12-18T09:57:17;33.27;;;23.27;;
10403;SDS011;5248;47.374;8.486;2022-12-18T09:59:47;34.47;;;23.60;;
10403;SDS011;5248;47.374;8.486;2022-12-18T10:02:19;35.97;;;24.03;;
10403;SDS011;5248;47.374;8.486;2022-12-18T10:04:48;33.00;;;22.90;;
10403;SDS011;5248;47.374;8.486;2022-12-18T10:07:22;33.97;;;23.77;;
10403;SDS011;5248;47.374;8.486;2022-12-18T10:09:54;33.47;;;23.63;;
10403;SDS011;5248;47.374;8.486;2022-12-18T10:12:27;33.50;;;23.30;;
10403;SDS011;5248;47.374;8.486;2022-12-18T10:15:01;32.90;;;23.03;;
10403;SDS011;5248;47.374;8.486;2022-12-18T10:17:33;33.27;;;22.83;;
10403;SDS011;5248;47.374;8.486;2022-12-18T10:20:05;34.10;;;23.97;;
10403;SDS011;5248;47.374;8.486;2022-12-18T10:22:41;31.13;;;22.53;;
10403;SDS011;5248;47.374;8.486;2022-12-18T10:25:15;34.53;;;23.73;;
10403;SDS011;5248;47.374;8.486;2022-12-18T10:27:45;34.83;;;23.50;;
10403;SDS011;5248;47.374;8.486;2022-12-18T10:30:14;34.30;;;23.07;;
10403;SDS011;5248;47.374;8.486;2022-12-18T10:32:43;32.47;;;22.17;;
10403;SDS011;5248;47.374;8.486;2022-12-18T10:35:11;32.97;;;22.70;;
10403;SDS011;5248;47.374;8.486;2022-12-18T10:40:26;31.47;;;22.33;;
10403;SDS011;5248;47.374;8.486;2022-12-18T10:43:03;32.60;;;22.40;;
10403;SDS011;5248;47.374;8.486;2022-12-18T10:45:32;32.43;;;22.47;;
10403;SDS011;5248;47.374;8.486;2022-12-18T10:47:58;32.63;;;22.03;;
10403;SDS011;5248;47.374;8.486;2022-12-18T10:50:25;34.87;;;21.53;;
10403;SDS011;5248;47.374;8.486;2022-12-18T10:52:54;32.20;;;21.93;;
10403;SDS011;5248;47.374;8.486;2022-12-18T10:55:21;31.03;;;21.37;;
10403;SDS011;5248;47.374;8.486;2022-12-18T10:57:48;33.03;;;22.17;;
10403;SDS011;5248;47.374;8.486;2022-12-18T11:00:21;33.77;;;22.80;;
10403;SDS011;5248;47.374;8.486;2022-12-18T11:02:51;39.70;;;28.27;;
10403;SDS011;5248;47.374;8.486;2022-12-18T11:05:26;37.50;;;25.13;;
10403;SDS011;5248;47.374;8.486;2022-12-18T11:07:54;33.37;;;22.63;;
10403;SDS011;5248;47.374;8.486;2022-12-18T11:10:22;30.93;;;22.57;;
10403;SDS011;5248;47.374;8.486;2022-12-18T11:12:53;33.43;;;22.60;;
10403;SDS011;5248;47.374;8.486;2022-12-18T11:15:20;32.70;;;22.83;;
10403;SDS011;5248;47.374;8.486;2022-12-18T11:17:49;31.67;;;21.63;;
10403;SDS011;5248;47.374;8.486;2022-12-18T11:20:23;33.37;;;22.37;;
10403;SDS011;5248;47.374;8.486;2022-12-18T11:22:54;31.30;;;21.93;;
10403;SDS011;5248;47.374;8.486;2022-12-18T11:25:22;30.73;;;21.13;;
10403;SDS011;5248;47.374;8.486;2022-12-18T11:27:49;30.50;;;22.00;;
10403;SDS011;5248;47.374;8.486;2022-12-18T11:30:22;30.73;;;20.77;;
10403;SDS011;5248;47.374;8.486;2022-12-18T11:32:55;31.17;;;21.57;;
10403;SDS011;5248;47.374;8.486;2022-12-18T11:35:38;30.13;;;21.53;;
10403;SDS011;5248;47.374;8.486;2022-12-18T11:38:12;30.37;;;21.70;;
10403;SDS011;5248;47.374;8.486;2022-12-18T11:40:45;31.97;;;22.17;;
10403;SDS011;5248;47.374;8.486;2022-12-18T11:43:14;33.53;;;22.97;;
10403;SDS011;5248;47.374;8.486;2022-12-18T11:45:45;30.87;;;22.03;;
10403;SDS011;5248;47.374;8.486;2022-12-18T11:48:17;33.43;;;23.53;;
10403;SDS011;5248;47.374;8.486;2022-12-18T11:50:48;34.10;;;23.20;;
10403;SDS011;5248;47.374;8.486;2022-12-18T11:53:16;33.20;;;23.93;;
10403;SDS011;5248;47.374;8.486;2022-12-18T11:55:47;33.43;;;23.80;;
10403;SDS011;5248;47.374;8.486;2022-12-18T11:58:20;32.80;;;22.60;;
10403;SDS011;5248;47.374;8.486;2022-12-18T12:00:56;36.07;;;25.03;;
10403;SDS011;5248;47.374;8.486;2022-12-18T12:03:49;32.23;;;23.53;;
10403;SDS011;5248;47.374;8.486;2022-12-18T12:06:28;34.73;;;23.87;;
10403;SDS011;5248;47.374;8.486;2022-12-18T12:09:02;31.93;;;22.77;;
10403;SDS011;5248;47.374;8.486;2022-12-18T12:11:37;35.93;;;23.73;;
10403;SDS011;5248;47.374;8.486;2022-12-18T12:14:14;33.63;;;23.63;;
10403;SDS011;5248;47.374;8.486;2022-12-18T12:16:48;34.67;;;23.50;;
10403;SDS011;5248;47.374;8.486;2022-12-18T12:19:22;32.80;;;23.00;;
10403;SDS011;5248;47.374;8.486;2022-12-18T12:21:57;32.30;;;22.60;;
10403;SDS011;5248;47.374;8.486;2022-12-18T12:24:31;34.17;;;24.00;;
10403;SDS011;5248;47.374;8.486;2022-12-18T12:27:04;32.73;;;22.90;;
10403;SDS011;5248;47.374;8.486;2022-12-18T12:29:38;33.60;;;23.67;;
10403;SDS011;5248;47.374;8.486;2022-12-18T12:32:17;35.87;;;24.53;;
10403;SDS011;5248;47.374;8.486;2022-12-18T12:34:59;35.47;;;25.07;;
10403;SDS011;5248;47.374;8.486;2022-12-18T12:37:34;36.03;;;24.53;;
10403;SDS011;5248;47.374;8.486;2022-12-18T12:40:06;33.43;;;23.63;;
10403;SDS011;5248;47.374;8.486;2022-12-18T12:42:34;35.77;;;25.63;;
10403;SDS011;5248;47.374;8.486;2022-12-18T12:45:21;35.07;;;24.23;;
10403;SDS011;5248;47.374;8.486;2022-12-18T12:47:50;31.53;;;23.30;;
10403;SDS011;5248;47.374;8.486;2022-12-18T12:50:19;33.80;;;24.93;;
10403;SDS011;5248;47.374;8.486;2022-12-18T12:52:47;33.40;;;23.93;;
10403;SDS011;5248;47.374;8.486;2022-12-18T12:55:16;36.20;;;24.27;;
10403;SDS011;5248;47.374;8.486;2022-12-18T12:57:45;33.63;;;24.57;;
10403;SDS011;5248;47.374;8.486;2022-12-18T13:00:13;34.00;;;23.67;;
10403;SDS011;5248;47.374;8.486;2022-12-18T13:02:42;34.03;;;24.40;;
10403;SDS011;5248;47.374;8.486;2022-12-18T13:05:16;33.83;;;23.67;;
10403;SDS011;5248;47.374;8.486;2022-12-18T13:07:49;32.37;;;23.53;;
10403;SDS011;5248;47.374;8.486;2022-12-18T13:10:26;33.70;;;23.70;;
10403;SDS011;5248;47.374;8.486;2022-12-18T13:12:57;34.83;;;24.60;;
10403;SDS011;5248;47.374;8.486;2022-12-18T13:15:27;34.03;;;24.00;;
10403;SDS011;5248;47.374;8.486;2022-12-18T13:18:03;33.73;;;23.60;;
10403;SDS011;5248;47.374;8.486;2022-12-18T13:20:45;32.60;;;24.10;;
10403;SDS011;5248;47.374;8.486;2022-12-18T13:23:19;34.83;;;23.80;;
10403;SDS011;5248;47.374;8.486;2022-12-18T13:25:54;35.03;;;24.30;;
10403;SDS011;5248;47.374;8.486;2022-12-18T13:28:21;34.53;;;25.33;;
10403;SDS011;5248;47.374;8.486;2022-12-18T13:30:51;35.83;;;25.90;;
10403;SDS011;5248;47.374;8.486;2022-12-18T13:33:34;32.60;;;24.00;;
10403;SDS011;5248;47.374;8.486;2022-12-18T13:36:12;34.70;;;24.93;;
10403;SDS011;5248;47.374;8.486;2022-12-18T13:38:41;32.57;;;24.47;;
10403;SDS011;5248;47.374;8.486;2022-12-18T13:41:25;31.53;;;23.53;;
10403;SDS011;5248;47.374;8.486;2022-12-18T13:43:53;33.20;;;23.73;;
10403;SDS011;5248;47.374;8.486;2022-12-18T13:46:23;36.37;;;23.87;;
10403;SDS011;5248;47.374;8.486;2022-12-18T13:48:57;33.70;;;24.00;;
10403;SDS011;5248;47.374;8.486;2022-12-18T13:51:26;33.07;;;23.60;;
10403;SDS011;5248;47.374;8.486;2022-12-18T13:53:53;32.13;;;22.47;;
10403;SDS011;5248;47.374;8.486;2022-12-18T13:56:22;32.07;;;23.10;;
10403;SDS011;5248;47.374;8.486;2022-12-18T13:59:06;34.77;;;23.93;;
10403;SDS011;5248;47.374;8.486;2022-12-18T14:01:41;31.83;;;22.87;;
10403;SDS011;5248;47.374;8.486;2022-12-18T14:04:09;31.87;;;23.53;;
10403;SDS011;5248;47.374;8.486;2022-12-18T14:06:37;32.87;;;24.30;;
10403;SDS011;5248;47.374;8.486;2022-12-18T14:09:04;34.00;;;23.17;;
10403;SDS011;5248;47.374;8.486;2022-12-18T14:11:31;32.83;;;23.50;;
10403;SDS011;5248;47.374;8.486;2022-12-18T14:13:58;33.77;;;23.23;;
10403;SDS011;5248;47.374;8.486;2022-12-18T14:16:24;31.77;;;22.63;;
10403;SDS011;5248;47.374;8.486;2022-12-18T14:18:52;33.37;;;22.53;;
10403;SDS011;5248;47.374;8.486;2022-12-18T14:21:21;33.87;;;23.13;;
10403;SDS011;5248;47.374;8.486;2022-12-18T14:23:49;32.47;;;22.77;;
10403;SDS011;5248;47.374;8.486;2022-12-18T14:26:30;34.43;;;24.40;;
10403;SDS011;5248;47.374;8.486;2022-12-18T14:28:58;32.77;;;22.80;;
10403;SDS011;5248;47.374;8.486;2022-12-18T14:31:26;32.10;;;23.63;;
10403;SDS011;5248;47.374;8.486;2022-12-18T14:33:54;33.53;;;24.47;;
10403;SDS011;5248;47.374;8.486;2022-12-18T14:36:21;36.77;;;25.97;;
10403;SDS011;5248;47.374;8.486;2022-12-18T14:38:51;33.80;;;25.47;;
10403;SDS011;5248;47.374;8.486;2022-12-18T14:41:19;32.17;;;23.57;;
10403;SDS011;5248;47.374;8.486;2022-12-18T14:43:47;30.50;;;22.97;;
10403;SDS011;5248;47.374;8.486;2022-12-18T14:46:28;33.77;;;24.50;;
10403;SDS011;5248;47.374;8.486;2022-12-18T14:48:57;31.80;;;23.00;;